Time;durP1;ratioP1;P1;durP2;ratioP2;P2;SDS_P1;SDS_P2;PMS_P1;PMS_P2;Temp;Humidity;BMP_temperature;BMP_pressure;BME280_temperature;BME280_humidity;BME280_pressure;Samples;Min_cycle;Max_cycle;Signal;HPM_P1;HPM_P2
2022/11/15 00:00:29;;;;;;;7.23;6.63;;;8.00;99.90;;;;;;4984470;28;20644;-88
2022/11/15 00:02:56;;;;;;;6.70;6.20;;;8.40;99.90;;;;;;4982897;28;20627;-88
2022/11/15 00:05:23;;;;;;;6.70;6.20;;;8.60;99.90;;;;;;4984317;28;20632;-88
2022/11/15 00:07:50;;;;;;;6.37;5.87;;;8.50;99.90;;;;;;4979987;28;20617;-88
2022/11/15 00:10:18;;;;;;;5.40;5.00;;;8.50;99.90;;;;;;4979067;28;20652;-88
2022/11/15 00:12:45;;;;;;;7.20;6.27;;;8.50;99.90;;;;;;4982688;28;20633;-88
2022/11/15 00:15:12;;;;;;;7.13;6.37;;;8.70;99.90;;;;;;4991207;28;20639;-88
2022/11/15 00:17:39;;;;;;;6.03;5.53;;;8.50;99.90;;;;;;4984890;28;21003;-88
2022/11/15 00:20:07;;;;;;;7.10;6.40;;;8.70;99.90;;;;;;4981294;28;21103;-88
2022/11/15 00:22:34;;;;;;;6.17;5.63;;;8.40;99.90;;;;;;4985749;28;20619;-88
2022/11/15 00:25:01;;;;;;;6.33;5.83;;;8.60;99.90;;;;;;4978125;28;20634;-88
2022/11/15 00:27:29;;;;;;;5.77;5.23;;;8.60;99.90;;;;;;4981391;28;20626;-88
2022/11/15 00:29:55;;;;;;;6.20;5.70;;;8.20;99.90;;;;;;4980098;28;20633;-88
2022/11/15 00:32:22;;;;;;;6.80;6.13;;;8.20;99.90;;;;;;4986039;28;20644;-88
2022/11/15 00:34:49;;;;;;;8.17;6.70;;;8.20;99.90;;;;;;4982821;28;20678;-88
2022/11/15 00:37:15;;;;;;;7.27;6.57;;;8.40;99.90;;;;;;4981028;28;21146;-88
2022/11/15 00:39:42;;;;;;;7.70;7.00;;;8.70;99.90;;;;;;4982888;28;20632;-88
2022/11/15 00:42:09;;;;;;;6.93;6.23;;;8.90;99.90;;;;;;4983813;28;20633;-88
2022/11/15 00:44:37;;;;;;;8.17;7.47;;;8.40;99.90;;;;;;4981038;28;20631;-87
2022/11/15 00:47:04;;;;;;;7.30;6.70;;;8.60;99.90;;;;;;4988202;28;20633;-89
2022/11/15 00:49:33;;;;;;;7.30;6.70;;;8.40;99.90;;;;;;4986315;28;20712;-89
2022/11/15 00:52:00;;;;;;;8.17;7.47;;;8.30;99.90;;;;;;4978326;28;21287;-89
2022/11/15 00:54:27;;;;;;;7.67;7.00;;;8.30;99.90;;;;;;4987800;28;20656;-86
2022/11/15 00:56:53;;;;;;;7.70;7.00;;;7.80;99.90;;;;;;4991888;28;20702;-86
2022/11/15 00:59:20;;;;;;;7.80;7.03;;;8.50;99.90;;;;;;4987427;28;20635;-86
2022/11/15 01:01:48;;;;;;;7.73;7.13;;;8.00;99.90;;;;;;4984914;28;21105;-87
2022/11/15 01:04:15;;;;;;;11.27;7.10;;;7.90;99.90;;;;;;4981758;28;21319;-87
2022/11/15 01:06:42;;;;;;;6.67;6.17;;;8.30;99.90;;;;;;4983665;28;20632;-87
2022/11/15 01:09:09;;;;;;;6.50;5.90;;;7.80;99.90;;;;;;4989047;28;21259;-87
2022/11/15 01:11:36;;;;;;;6.30;5.70;;;7.90;99.90;;;;;;4986036;28;20659;-87
2022/11/15 01:14:03;;;;;;;8.00;6.10;;;7.60;99.90;;;;;;4985906;28;20683;-88
2022/11/15 01:16:31;;;;;;;5.90;5.40;;;8.10;99.90;;;;;;4981501;28;21213;-87
2022/11/15 01:18:59;;;;;;;5.77;5.33;;;7.80;99.90;;;;;;4986248;28;20640;-88
2022/11/15 01:21:25;;;;;;;5.80;5.20;;;7.90;99.90;;;;;;4989239;28;20656;-87
2022/11/15 01:23:54;;;;;;;8.40;5.60;;;8.00;99.90;;;;;;4989537;28;20620;-87
2022/11/15 01:26:22;;;;;;;6.60;5.87;;;7.80;99.90;;;;;;4989893;28;20629;-87
2022/11/15 01:28:49;;;;;;;5.70;5.13;;;7.40;99.90;;;;;;4983039;28;21083;-86
2022/11/15 01:31:18;;;;;;;6.10;5.50;;;7.60;99.90;;;;;;4989793;28;20648;-87
2022/11/15 01:33:46;;;;;;;7.23;6.53;;;7.80;99.90;;;;;;4990288;28;20672;-87
2022/11/15 01:36:22;;;;;;;7.83;7.07;;;7.70;99.90;;;;;;4982725;28;20625;-88
2022/11/15 01:38:54;;;;;;;7.20;6.53;;;7.70;99.90;;;;;;4987418;28;20635;-87
2022/11/15 01:41:23;;;;;;;7.83;6.70;;;7.50;99.90;;;;;;4982547;28;20707;-87
2022/11/15 01:43:52;;;;;;;8.03;6.87;;;7.20;99.90;;;;;;4983612;28;20987;-88
2022/11/15 01:46:28;;;;;;;9.50;7.53;;;7.10;99.90;;;;;;4993168;28;20998;-87
2022/11/15 01:48:57;;;;;;;8.43;6.70;;;7.40;99.90;;;;;;4985575;28;20632;-88
2022/11/15 01:51:32;;;;;;;7.57;6.80;;;7.20;99.90;;;;;;4989883;28;20656;-87
2022/11/15 01:54:03;;;;;;;9.37;7.87;;;7.20;99.90;;;;;;4988567;28;20766;-87
2022/11/15 01:56:33;;;;;;;7.80;7.00;;;6.90;99.90;;;;;;4993953;28;20646;-87
2022/11/15 01:59:05;;;;;;;8.10;7.03;;;6.90;99.90;;;;;;4994414;28;20629;-86
2022/11/15 02:01:33;;;;;;;9.07;8.17;;;6.60;99.90;;;;;;4992141;28;20652;-87
2022/11/15 02:04:02;;;;;;;7.83;7.10;;;7.30;99.90;;;;;;5002350;28;20678;-87
2022/11/15 02:06:30;;;;;;;8.30;7.50;;;7.00;99.90;;;;;;5006970;28;20602;-87
2022/11/15 02:08:57;;;;;;;7.77;7.17;;;6.80;99.90;;;;;;5003109;28;21262;-86
2022/11/15 02:11:24;;;;;;;7.03;6.33;;;7.10;99.90;;;;;;5003014;28;20719;-86
2022/11/15 02:13:51;;;;;;;6.90;5.90;;;7.30;99.90;;;;;;5004561;28;20675;-87
2022/11/15 02:16:32;;;;;;;7.30;6.60;;;6.90;99.90;;;;;;4997781;28;20644;-86
2022/11/15 02:19:10;;;;;;;5.53;4.93;;;7.10;99.90;;;;;;4980588;28;20799;-87
2022/11/15 02:21:44;;;;;;;6.37;5.77;;;7.20;99.90;;;;;;4976548;28;21026;-86
2022/11/15 02:24:44;;;;;;;6.80;6.23;;;7.10;99.90;;;;;;4985064;28;21224;-87
2022/11/15 02:27:50;;;;;;;6.20;4.80;;;6.40;99.90;;;;;;4984533;28;20640;-87
2022/11/15 02:30:24;;;;;;;5.10;4.70;;;6.80;99.90;;;;;;4981809;28;20659;-87
2022/11/15 02:32:55;;;;;;;7.63;5.83;;;7.00;99.90;;;;;;4978677;28;20651;-87
2022/11/15 02:35:31;;;;;;;5.70;5.27;;;6.80;99.90;;;;;;4988383;28;20652;-86
2022/11/15 02:38:03;;;;;;;6.67;5.83;;;7.00;99.90;;;;;;4981589;28;20621;-86
2022/11/15 02:40:39;;;;;;;6.40;5.67;;;7.10;99.90;;;;;;4985870;28;20659;-86
2022/11/15 02:46:03;;;;;;;6.80;6.20;;;6.90;99.90;;;;;;4983641;28;21000;-87
2022/11/15 02:48:32;;;;;;;8.60;6.67;;;6.80;99.90;;;;;;4985269;28;20647;-87
2022/11/15 02:51:01;;;;;;;6.70;6.13;;;6.80;99.90;;;;;;4980800;28;20664;-87
2022/11/15 02:53:28;;;;;;;7.63;6.90;;;6.90;99.90;;;;;;4986414;28;20818;-87
2022/11/15 02:55:57;;;;;;;7.53;6.83;;;7.00;99.90;;;;;;4976629;28;20640;-88
2022/11/15 02:58:54;;;;;;;10.63;6.60;;;7.00;99.90;;;;;;4977954;28;20636;-87
2022/11/15 03:01:37;;;;;;;7.37;6.67;;;6.80;99.90;;;;;;4985737;28;20652;-87
2022/11/15 03:04:17;;;;;;;7.07;6.47;;;6.90;99.90;;;;;;4986608;28;21166;-87
2022/11/15 03:06:51;;;;;;;7.13;6.20;;;7.00;99.90;;;;;;4985431;28;20631;-87
2022/11/15 03:09:33;;;;;;;6.20;5.60;;;6.50;99.90;;;;;;4992257;28;21076;-87
2022/11/15 03:12:09;;;;;;;7.20;6.60;;;6.70;99.90;;;;;;4985540;28;21012;-87
2022/11/15 03:14:41;;;;;;;7.93;7.20;;;6.80;99.90;;;;;;4984880;28;20664;-87
2022/11/15 03:17:16;;;;;;;8.03;7.23;;;6.40;99.90;;;;;;4979497;28;20621;-86
2022/11/15 03:19:46;;;;;;;8.67;6.67;;;7.20;99.90;;;;;;4985891;28;20664;-87
2022/11/15 03:22:16;;;;;;;7.70;6.77;;;7.00;99.90;;;;;;4984646;28;20969;-86
2022/11/15 03:24:46;;;;;;;8.23;7.43;;;6.50;99.90;;;;;;4984314;28;20643;-87
2022/11/15 03:27:16;;;;;;;8.00;6.93;;;7.00;99.90;;;;;;4981154;28;20633;-86
2022/11/15 03:29:47;;;;;;;7.50;6.80;;;7.00;99.90;;;;;;4986764;28;20663;-87
2022/11/15 03:32:19;;;;;;;8.00;7.30;;;7.00;99.90;;;;;;4979204;28;20612;-87
2022/11/15 03:34:54;;;;;;;7.50;6.90;;;6.90;99.90;;;;;;4985169;28;21021;-87
2022/11/15 03:37:25;;;;;;;8.03;7.43;;;6.70;99.90;;;;;;4984330;28;20666;-87
2022/11/15 03:39:52;;;;;;;7.60;6.90;;;6.90;99.90;;;;;;4984832;28;20671;-86
2022/11/15 03:42:27;;;;;;;7.50;6.90;;;6.90;99.90;;;;;;4984896;28;20682;-86
2022/11/15 03:45:02;;;;;;;7.87;7.13;;;6.90;99.90;;;;;;4981220;28;20656;-87
2022/11/15 03:47:35;;;;;;;9.43;8.70;;;6.70;99.90;;;;;;4989615;28;20674;-87
2022/11/15 03:50:08;;;;;;;9.17;7.77;;;6.80;99.90;;;;;;4987275;28;20621;-86
2022/11/15 03:52:36;;;;;;;10.03;7.70;;;7.10;99.90;;;;;;4979599;28;20941;-87
2022/11/15 03:55:05;;;;;;;9.20;8.30;;;7.00;99.90;;;;;;4983967;28;20668;-87
2022/11/15 03:57:32;;;;;;;8.80;8.00;;;7.10;99.90;;;;;;4985945;28;20672;-86
2022/11/15 03:59:58;;;;;;;7.97;7.17;;;7.00;99.90;;;;;;4987178;28;20633;-88
2022/11/15 04:02:25;;;;;;;7.30;6.70;;;7.00;99.90;;;;;;4983129;28;20652;-88
2022/11/15 04:04:53;;;;;;;7.33;6.73;;;7.00;99.90;;;;;;4984090;28;20637;-88
2022/11/15 04:07:20;;;;;;;8.30;7.50;;;6.50;99.90;;;;;;4984411;28;20617;-88
2022/11/15 04:10:06;;;;;;;7.30;6.70;;;6.30;99.90;;;;;;4977439;28;21094;-88
2022/11/15 04:12:34;;;;;;;7.80;6.27;;;6.80;99.90;;;;;;4980107;28;20663;-88
2022/11/15 04:15:09;;;;;;;8.07;7.30;;;6.90;99.90;;;;;;4989707;28;20648;-88
2022/11/15 04:17:38;;;;;;;8.43;6.90;;;6.90;99.90;;;;;;4991276;28;20635;-88
2022/11/15 04:25:39;;;;;;;7.70;7.00;;;6.60;99.90;;;;;;4983612;28;20623;-87
2022/11/15 04:28:06;;;;;;;7.97;7.37;;;6.70;99.90;;;;;;4983400;28;20652;-88
2022/11/15 04:30:33;;;;;;;7.50;6.37;;;6.60;99.90;;;;;;4985551;28;20632;-88
2022/11/15 04:33:00;;;;;;;6.87;6.27;;;6.40;99.90;;;;;;4980116;28;20637;-87
2022/11/15 04:35:28;;;;;;;9.00;8.10;;;6.20;99.90;;;;;;4984329;28;20990;-86
2022/11/15 04:37:55;;;;;;;7.97;7.27;;;6.80;99.90;;;;;;4983784;28;21031;-88
2022/11/15 04:40:22;;;;;;;8.30;7.60;;;6.60;99.90;;;;;;4980585;28;20629;-88
2022/11/15 04:42:49;;;;;;;8.87;8.07;;;6.60;99.90;;;;;;4970057;28;20629;-88
2022/11/15 04:45:16;;;;;;;7.60;6.90;;;6.50;99.90;;;;;;4986554;28;20621;-88
2022/11/15 04:47:45;;;;;;;8.50;7.80;;;6.60;99.90;;;;;;4984768;28;20639;-88
2022/11/15 04:50:13;;;;;;;8.53;7.60;;;6.50;99.90;;;;;;4981641;28;20625;-88
2022/11/15 04:52:42;;;;;;;9.47;8.57;;;6.60;99.90;;;;;;4985318;28;20686;-86
2022/11/15 04:55:09;;;;;;;12.27;11.20;;;6.70;99.90;;;;;;4979938;28;20665;-86
2022/11/15 04:57:36;;;;;;;15.00;13.60;;;6.70;99.90;;;;;;4983145;28;20636;-89
2022/11/15 05:00:04;;;;;;;12.77;11.57;;;6.50;99.90;;;;;;4980849;28;20639;-87
2022/11/15 05:05:13;;;;;;;11.27;10.27;;;6.70;99.90;;;;;;4982568;28;20652;-87
2022/11/15 05:07:41;;;;;;;9.37;8.17;;;6.50;99.90;;;;;;4974366;28;20647;-87
2022/11/15 05:10:08;;;;;;;9.57;8.57;;;6.50;99.90;;;;;;4988344;28;20636;-86
2022/11/15 05:12:35;;;;;;;13.00;11.80;;;6.40;99.90;;;;;;4981710;28;20640;-86
2022/11/15 05:15:01;;;;;;;10.63;9.90;;;6.70;99.90;;;;;;4978767;28;21373;-87
2022/11/15 05:17:28;;;;;;;8.70;8.00;;;6.50;99.90;;;;;;4978164;28;20641;-85
2022/11/15 05:19:55;;;;;;;15.90;10.77;;;6.70;99.90;;;;;;4983113;28;21184;-86
2022/11/15 05:22:22;;;;;;;13.23;12.13;;;6.70;99.90;;;;;;4985827;28;20717;-86
2022/11/15 05:24:50;;;;;;;12.13;11.03;;;6.50;99.90;;;;;;4982151;28;20995;-85
2022/11/15 05:27:17;;;;;;;10.30;9.40;;;6.50;99.90;;;;;;4985485;28;20999;-84
2022/11/15 05:29:44;;;;;;;11.77;10.87;;;6.40;99.90;;;;;;4984315;28;20788;-85
2022/11/15 05:32:13;;;;;;;11.57;10.63;;;6.50;99.90;;;;;;4989816;28;20634;-85
2022/11/15 05:34:40;;;;;;;9.90;9.10;;;6.40;99.90;;;;;;4993540;28;20669;-85
2022/11/15 05:37:07;;;;;;;9.33;8.60;;;6.60;99.90;;;;;;4979964;28;21125;-86
2022/11/15 05:39:34;;;;;;;9.43;8.63;;;6.30;99.90;;;;;;4987686;28;20647;-85
2022/11/15 05:42:07;;;;;;;10.63;9.67;;;6.20;99.90;;;;;;4981160;28;20636;-86
2022/11/15 05:44:35;;;;;;;10.50;9.50;;;6.70;99.90;;;;;;4982478;28;20637;-87
2022/11/15 05:47:03;;;;;;;10.17;9.20;;;6.60;99.90;;;;;;4989517;28;20973;-86
2022/11/15 05:49:32;;;;;;;10.83;9.83;;;6.30;99.90;;;;;;4977132;28;20626;-85
2022/11/15 05:51:59;;;;;;;13.77;12.67;;;6.00;99.90;;;;;;4981855;28;20653;-86
2022/11/15 05:54:26;;;;;;;13.13;11.80;;;6.30;99.90;;;;;;4982645;28;20665;-86
2022/11/15 05:56:55;;;;;;;11.97;10.80;;;6.40;99.90;;;;;;4977453;28;20651;-86
2022/11/15 05:59:23;;;;;;;11.40;10.40;;;6.00;99.90;;;;;;4986069;28;20634;-86
2022/11/15 06:01:50;;;;;;;12.23;11.13;;;6.30;99.90;;;;;;4988447;28;20661;-85
2022/11/15 06:04:17;;;;;;;12.67;11.57;;;6.30;99.90;;;;;;4992512;28;20637;-85
2022/11/15 06:06:44;;;;;;;13.33;12.27;;;6.30;99.90;;;;;;4986555;28;20634;-86
2022/11/15 06:09:11;;;;;;;13.00;11.87;;;5.60;99.90;;;;;;4990971;28;20628;-85
2022/11/15 06:11:38;;;;;;;10.63;9.80;;;6.00;99.90;;;;;;4989890;28;20649;-85
2022/11/15 06:14:05;;;;;;;13.10;11.90;;;5.60;99.90;;;;;;4989254;28;20783;-85
2022/11/15 06:16:33;;;;;;;13.87;12.50;;;5.90;99.90;;;;;;4986690;28;20661;-85
2022/11/15 06:18:59;;;;;;;12.67;11.63;;;5.80;99.90;;;;;;4988019;28;21006;-85
2022/11/15 06:21:28;;;;;;;14.87;13.27;;;6.20;99.90;;;;;;4981258;28;20659;-85
2022/11/15 06:23:55;;;;;;;11.03;10.13;;;5.90;99.90;;;;;;4983267;28;20622;-85
2022/11/15 06:26:22;;;;;;;12.30;11.20;;;6.00;99.90;;;;;;4984232;28;20683;-84
2022/11/15 06:28:49;;;;;;;13.20;10.70;;;6.10;99.90;;;;;;4993705;28;20988;-84
2022/11/15 06:31:16;;;;;;;11.60;10.70;;;6.10;99.90;;;;;;4989155;28;20656;-85
2022/11/15 06:33:44;;;;;;;11.90;10.70;;;5.90;99.90;;;;;;4986511;28;20739;-85
2022/11/15 06:36:16;;;;;;;15.13;13.90;;;6.10;99.90;;;;;;4989212;28;20670;-84
2022/11/15 06:38:43;;;;;;;14.30;12.23;;;5.90;99.90;;;;;;4987054;28;20640;-84
2022/11/15 06:41:11;;;;;;;11.90;10.60;;;5.90;99.90;;;;;;4992331;28;20656;-84
2022/11/15 06:43:39;;;;;;;11.87;10.77;;;5.90;99.90;;;;;;4994087;28;20632;-85
2022/11/15 06:46:07;;;;;;;14.37;13.07;;;6.00;99.90;;;;;;5013890;28;20628;-84
2022/11/15 06:48:34;;;;;;;12.90;11.80;;;6.00;99.90;;;;;;5013692;28;20621;-84
2022/11/15 06:51:05;;;;;;;11.77;10.57;;;6.10;99.90;;;;;;5009932;28;20668;-85
2022/11/15 06:53:31;;;;;;;11.43;10.33;;;6.10;99.90;;;;;;5010323;28;20601;-85
2022/11/15 06:56:00;;;;;;;11.57;10.67;;;6.10;99.90;;;;;;4988647;28;20684;-85
2022/11/15 06:58:29;;;;;;;12.53;11.53;;;6.20;99.90;;;;;;4985112;28;20633;-85
2022/11/15 07:01:00;;;;;;;12.37;11.47;;;6.30;99.90;;;;;;4987431;28;20651;-85
2022/11/15 07:03:28;;;;;;;11.80;10.80;;;6.10;99.90;;;;;;4985516;28;20629;-88
2022/11/15 07:05:56;;;;;;;12.00;10.90;;;6.40;99.90;;;;;;4983170;28;20628;-85
2022/11/15 07:08:27;;;;;;;11.30;10.20;;;6.40;99.90;;;;;;4988340;28;20628;-85
2022/11/15 07:10:55;;;;;;;13.47;11.33;;;6.40;99.90;;;;;;4983262;28;20701;-85
2022/11/15 07:13:25;;;;;;;13.20;12.00;;;6.20;99.90;;;;;;4985409;28;20756;-85
2022/11/15 07:15:52;;;;;;;12.47;11.13;;;6.40;99.90;;;;;;4986766;28;20671;-85
2022/11/15 07:18:19;;;;;;;12.03;11.00;;;6.30;99.90;;;;;;4986877;28;20655;-85
2022/11/15 07:20:45;;;;;;;10.37;9.40;;;6.30;99.90;;;;;;4986984;28;20660;-85
2022/11/15 07:23:12;;;;;;;10.80;9.80;;;6.20;99.90;;;;;;4981250;28;20720;-85
2022/11/15 07:25:40;;;;;;;10.83;9.83;;;6.10;99.90;;;;;;4985310;28;20647;-85
2022/11/15 07:28:07;;;;;;;11.37;10.37;;;6.70;99.90;;;;;;4986829;28;20998;-85
2022/11/15 07:30:34;;;;;;;10.73;9.83;;;6.60;99.90;;;;;;4988318;28;20661;-85
2022/11/15 07:33:01;;;;;;;10.90;9.90;;;6.90;99.90;;;;;;4991783;28;20643;-85
2022/11/15 07:35:30;;;;;;;11.93;11.03;;;7.00;99.90;;;;;;4991614;28;20664;-85
2022/11/15 07:37:58;;;;;;;12.07;11.03;;;7.10;99.90;;;;;;4983526;28;20644;-85
2022/11/15 07:40:25;;;;;;;11.83;10.90;;;7.20;99.90;;;;;;4984512;28;20724;-85
2022/11/15 07:42:54;;;;;;;11.10;9.97;;;7.50;99.90;;;;;;4985014;28;20640;-86
2022/11/15 07:45:21;;;;;;;8.27;7.57;;;7.10;99.90;;;;;;4988710;28;20632;-85
2022/11/15 07:47:48;;;;;;;11.93;9.50;;;7.30;99.90;;;;;;4979820;28;20691;-85
2022/11/15 07:50:15;;;;;;;11.07;10.20;;;7.40;99.90;;;;;;4984442;28;20624;-86
2022/11/15 07:52:42;;;;;;;10.90;9.93;;;8.00;99.90;;;;;;4982420;28;20625;-86
2022/11/15 07:55:09;;;;;;;13.00;12.10;;;7.80;99.90;;;;;;4986467;28;20726;-85
2022/11/15 07:57:36;;;;;;;11.80;10.70;;;8.30;99.90;;;;;;4988761;28;21233;-86
2022/11/15 08:00:06;;;;;;;7.30;6.70;;;8.70;99.90;;;;;;4984516;28;20656;-86
2022/11/15 08:02:36;;;;;;;6.93;6.23;;;8.90;99.90;;;;;;4981924;28;20624;-87
2022/11/15 08:05:03;;;;;;;7.80;5.33;;;9.30;99.90;;;;;;4979652;28;20630;-87
2022/11/15 08:07:31;;;;;;;6.23;5.63;;;9.00;99.90;;;;;;4985488;28;20654;-87
2022/11/15 08:09:58;;;;;;;5.27;4.83;;;8.90;99.90;;;;;;4981463;28;20634;-87
2022/11/15 08:12:32;;;;;;;7.00;6.40;;;9.20;99.90;;;;;;4983228;28;20628;-86
2022/11/15 08:14:59;;;;;;;6.53;5.90;;;8.90;99.90;;;;;;4977208;28;20648;-87
2022/11/15 08:17:31;;;;;;;8.33;6.40;;;9.10;99.90;;;;;;4988086;28;20660;-88
2022/11/15 08:19:58;;;;;;;7.07;6.47;;;8.70;99.90;;;;;;4986577;28;20740;-87
2022/11/15 08:22:25;;;;;;;7.23;5.90;;;9.30;99.90;;;;;;4982460;28;21963;-88
2022/11/15 08:24:52;;;;;;;8.87;6.97;;;9.40;99.90;;;;;;4971302;28;20663;-86
2022/11/15 08:27:19;;;;;;;23.77;21.37;;;9.40;99.90;;;;;;4980026;28;20679;-87
2022/11/15 08:29:46;;;;;;;11.37;10.37;;;9.40;99.90;;;;;;4975545;28;20656;-86
2022/11/15 08:32:15;;;;;;;10.10;7.73;;;9.40;99.90;;;;;;4981478;28;21158;-87
2022/11/15 08:34:43;;;;;;;9.90;7.27;;;9.60;99.90;;;;;;4980626;28;20995;-87
2022/11/15 08:37:09;;;;;;;8.67;7.83;;;9.50;99.90;;;;;;4975498;28;20708;-88
2022/11/15 08:39:39;;;;;;;8.30;7.50;;;9.60;99.90;;;;;;4983068;28;20638;-87
2022/11/15 08:42:06;;;;;;;8.27;7.47;;;9.20;99.90;;;;;;4986706;28;20663;-87
2022/11/15 08:44:33;;;;;;;11.10;9.53;;;9.20;99.90;;;;;;4982328;28;20628;-87
2022/11/15 08:47:00;;;;;;;8.00;7.30;;;9.60;99.90;;;;;;4967138;28;20637;-88
2022/11/15 08:49:27;;;;;;;7.87;6.57;;;9.60;99.90;;;;;;4966872;28;20728;-87
2022/11/15 08:51:55;;;;;;;11.10;6.60;;;10.20;99.90;;;;;;4978886;28;20660;-87
2022/11/15 08:54:23;;;;;;;6.90;6.20;;;10.20;99.90;;;;;;4981933;28;20695;-87
2022/11/15 08:56:50;;;;;;;8.30;5.77;;;10.70;99.90;;;;;;4978105;28;20797;-88
2022/11/15 08:59:17;;;;;;;7.50;5.80;;;10.70;99.90;;;;;;4980598;28;21539;-88
2022/11/15 09:01:44;;;;;;;6.87;5.73;;;10.70;99.90;;;;;;4983208;28;20628;-88
2022/11/15 09:04:12;;;;;;;7.00;6.30;;;10.40;99.90;;;;;;4982500;28;20629;-88
2022/11/15 09:06:41;;;;;;;7.00;6.40;;;11.20;99.90;;;;;;4986780;28;20708;-89
2022/11/15 09:09:10;;;;;;;6.63;6.00;;;11.40;99.90;;;;;;4994976;28;20755;-89
2022/11/15 09:11:43;;;;;;;7.20;6.10;;;11.50;99.90;;;;;;5012647;28;20717;-89
2022/11/15 09:14:14;;;;;;;10.47;6.37;;;12.10;99.90;;;;;;5013155;28;20663;-88
2022/11/15 09:16:41;;;;;;;6.17;5.57;;;12.40;96.50;;;;;;5006134;28;20673;-89
2022/11/15 09:19:07;;;;;;;9.60;6.60;;;12.50;82.60;;;;;;4999671;28;20733;-88
2022/11/15 09:21:34;;;;;;;6.97;6.23;;;12.70;57.00;;;;;;4993581;28;20625;-87
2022/11/15 09:24:02;;;;;;;9.27;5.80;;;13.10;51.00;;;;;;4988337;28;20628;-88
2022/11/15 09:26:53;;;;;;;10.70;6.80;;;13.20;1.00;;;;;;4986464;28;20643;-88
2022/11/15 09:29:34;;;;;;;6.30;5.80;;;13.50;1.00;;;;;;5012763;28;20608;-88
2022/11/15 09:32:22;;;;;;;9.57;6.20;;;12.40;53.80;;;;;;5005508;28;20614;-88
2022/11/15 09:34:49;;;;;;;6.90;6.20;;;12.10;96.00;;;;;;4984596;28;20685;-88
2022/11/15 09:37:16;;;;;;;7.00;6.30;;;11.80;14.70;;;;;;4985330;28;20688;-88
2022/11/15 09:39:44;;;;;;;6.50;5.80;;;12.50;1.00;;;;;;4992372;28;20637;-88
2022/11/15 09:42:34;;;;;;;9.33;8.30;;;12.50;22.00;;;;;;4995155;28;20631;-89
2022/11/15 09:45:12;;;;;;;7.30;6.60;;;13.60;1.00;;;;;;4998089;28;20620;-88
2022/11/15 09:48:01;;;;;;;6.30;5.70;;;14.30;1.00;;;;;;5010662;28;20645;-90
2022/11/15 09:50:36;;;;;;;7.30;6.20;;;14.40;99.90;;;;;;5013551;28;20619;-89
2022/11/15 09:53:02;;;;;;;6.83;6.13;;;14.40;99.90;;;;;;5007510;28;20680;-87
2022/11/15 09:55:37;;;;;;;11.60;6.23;;;15.40;1.00;;;;;;5010467;28;20630;-86
2022/11/15 09:58:19;;;;;;;8.27;5.93;;;15.80;12.50;;;;;;4987381;28;20684;-87
2022/11/15 10:00:52;;;;;;;7.10;6.40;;;15.90;99.90;;;;;;4985510;28;20675;-88
2022/11/15 10:03:30;;;;;;;7.57;6.90;;;16.20;99.90;;;;;;4992200;28;20913;-89
2022/11/15 10:06:01;;;;;;;6.73;5.90;;;17.00;99.90;;;;;;4989118;28;20631;-89
2022/11/15 10:08:50;;;;;;;8.57;6.93;;;17.00;99.90;;;;;;4987011;28;20651;-89
2022/11/15 10:11:22;;;;;;;14.23;6.10;;;17.00;1.00;;;;;;4981709;28;20632;-88
2022/11/15 10:13:52;;;;;;;7.57;5.90;;;18.00;1.00;;;;;;4988991;28;21155;-88
2022/11/15 10:16:44;;;;;;;7.80;6.70;;;17.70;99.90;;;;;;4978531;28;20767;-87
2022/11/15 10:19:21;;;;;;;10.53;6.70;;;16.30;1.00;;;;;;4981807;28;20631;-88
2022/11/15 10:22:00;;;;;;;7.47;6.50;;;15.90;1.00;;;;;;4986645;28;20635;-88
2022/11/15 10:24:29;;;;;;;6.97;6.27;;;15.40;99.90;;;;;;4980327;28;20638;-87
2022/11/15 10:26:56;;;;;;;7.63;6.93;;;15.90;99.90;;;;;;4986964;28;20680;-90
2022/11/15 10:29:26;;;;;;;7.77;7.00;;;16.70;99.90;;;;;;4991924;28;20639;-89
2022/11/15 10:31:53;;;;;;;9.53;6.60;;;16.60;99.90;;;;;;4991667;28;20632;-89
2022/11/15 10:34:21;;;;;;;6.83;6.23;;;16.00;99.90;;;;;;4980817;28;20634;-88
2022/11/15 10:36:56;;;;;;;6.33;5.73;;;15.90;99.90;;;;;;4979758;28;20695;-88
2022/11/15 10:39:24;;;;;;;7.70;6.10;;;15.50;99.90;;;;;;4986639;28;20667;-88
2022/11/15 10:41:57;;;;;;;7.73;6.67;;;15.50;80.00;;;;;;4990281;28;20732;-88
2022/11/15 10:44:29;;;;;;;6.90;5.97;;;15.20;99.90;;;;;;5004493;28;20620;-89
2022/11/15 10:47:34;;;;;;;7.70;5.70;;;15.10;99.90;;;;;;4987942;28;20656;-89
2022/11/15 10:50:08;;;;;;;8.03;6.30;;;15.00;1.00;;;;;;4982768;28;20695;-88
2022/11/15 10:52:37;;;;;;;8.50;6.07;;;14.40;1.00;;;;;;4975447;28;21165;-87
2022/11/15 10:55:20;;;;;;;6.93;6.30;;;14.50;1.00;;;;;;4978523;28;21551;-89
2022/11/15 10:57:52;;;;;;;8.10;7.10;;;13.90;99.90;;;;;;4967885;28;20684;-87
2022/11/15 11:00:32;;;;;;;8.67;7.33;;;13.60;99.90;;;;;;4961686;28;20626;-87
2022/11/15 11:03:01;;;;;;;8.77;7.87;;;13.80;99.90;;;;;;4957213;28;20643;-88
2022/11/15 11:05:31;;;;;;;10.80;7.87;;;13.90;99.90;;;;;;4969076;28;20649;-88
2022/11/15 11:08:01;;;;;;;7.30;6.70;;;13.90;99.90;;;;;;4966654;28;20653;-88
2022/11/15 11:10:28;;;;;;;10.00;7.50;;;13.90;99.90;;;;;;4963499;28;20655;-87
2022/11/15 11:12:55;;;;;;;7.97;7.17;;;13.40;1.00;;;;;;4967895;28;20638;-89
2022/11/15 11:15:26;;;;;;;8.67;7.77;;;14.00;99.90;;;;;;4963176;28;20630;-87
2022/11/15 11:18:03;;;;;;;7.80;7.10;;;13.90;1.00;;;;;;4971513;28;20764;-87
2022/11/15 11:20:34;;;;;;;7.57;6.57;;;13.80;78.70;;;;;;4965688;28;20648;-88
2022/11/15 11:23:20;;;;;;;9.37;6.97;;;13.80;1.00;;;;;;4976458;28;20612;-87
2022/11/15 11:25:53;;;;;;;8.57;6.70;;;13.80;1.00;;;;;;4970309;28;20645;-87
2022/11/15 11:28:35;;;;;;;8.17;6.90;;;13.80;32.10;;;;;;4961896;28;21075;-87
2022/11/15 11:31:21;;;;;;;10.60;5.87;;;13.90;1.00;;;;;;4963511;28;20638;-87
2022/11/15 11:34:00;;;;;;;10.47;8.33;;;14.10;1.00;;;;;;4959409;28;20637;-88
2022/11/15 11:36:38;;;;;;;9.07;6.63;;;14.10;1.00;;;;;;4964480;28;20661;-87
2022/11/15 11:39:20;;;;;;;11.87;6.40;;;14.50;1.00;;;;;;4967603;28;20633;-88
2022/11/15 11:42:00;;;;;;;7.73;6.93;;;14.50;7.40;;;;;;4965109;28;20633;-88
2022/11/15 11:44:39;;;;;;;12.03;8.10;;;14.60;1.00;;;;;;4964246;28;21043;-88
2022/11/15 11:47:10;;;;;;;13.13;8.00;;;14.50;1.00;;;;;;4968356;28;20649;-88
2022/11/15 11:49:46;;;;;;;6.97;6.27;;;14.50;99.90;;;;;;4966696;28;20640;-88
2022/11/15 11:52:17;;;;;;;6.70;6.00;;;14.60;99.90;;;;;;4964323;28;20633;-87
2022/11/15 11:54:53;;;;;;;6.60;5.23;;;14.80;1.40;;;;;;4975079;28;20676;-87
2022/11/15 11:57:30;;;;;;;5.43;4.37;;;14.90;99.90;;;;;;4987005;28;20687;-88
2022/11/15 12:00:02;;;;;;;6.30;4.53;;;15.20;99.90;;;;;;4981146;28;20627;-88
2022/11/15 12:02:35;;;;;;;17.60;11.60;;;14.40;1.00;;;;;;4985656;28;20993;-87
2022/11/15 12:08:32;;;;;;;6.40;3.43;;;14.80;1.00;;;;;;5007665;28;21320;-87
2022/11/15 12:11:07;;;;;;;7.53;4.00;;;14.80;99.90;;;;;;5013668;28;20632;-88
2022/11/15 12:13:36;;;;;;;30.87;19.83;;;15.10;1.00;;;;;;4984027;28;20835;-87
2022/11/15 12:16:08;;;;;;;9.43;7.70;;;15.00;1.00;;;;;;4982459;28;20700;-89
2022/11/15 12:18:36;;;;;;;12.80;6.00;;;15.20;1.00;;;;;;4967770;28;20747;-88
2022/11/15 12:21:08;;;;;;;7.33;4.03;;;15.40;99.90;;;;;;4978614;28;20687;-89
2022/11/15 12:23:46;;;;;;;7.57;6.07;;;15.50;99.90;;;;;;4980622;28;21162;-89
2022/11/15 12:26:23;;;;;;;25.10;16.33;;;15.40;1.00;;;;;;4983089;28;21041;-89
2022/11/15 12:28:57;;;;;;;11.00;9.17;;;15.00;1.00;;;;;;4979226;28;20621;-89
2022/11/15 12:31:35;;;;;;;20.77;18.33;;;14.90;1.00;;;;;;4975162;28;20637;-89
2022/11/15 12:34:16;;;;;;;9.83;8.87;;;14.80;99.90;;;;;;4978814;28;20672;-89
2022/11/15 12:36:59;;;;;;;13.00;7.13;;;14.60;12.30;;;;;;4978792;28;20687;-89
2022/11/15 12:40:08;;;;;;;7.73;6.07;;;14.60;1.00;;;;;;4983970;28;20667;-89
2022/11/15 12:42:42;;;;;;;8.13;5.87;;;14.40;1.00;;;;;;4930045;28;20647;-89
2022/11/15 12:45:25;;;;;;;7.03;6.33;;;14.30;1.00;;;;;;4978034;28;20609;-89
2022/11/15 12:47:56;;;;;;;10.07;6.23;;;14.30;5.20;;;;;;4983790;28;20744;-89
2022/11/15 12:50:54;;;;;;;10.90;6.10;;;14.20;47.90;;;;;;4985131;28;20961;-89
2022/11/15 12:53:28;;;;;;;16.10;14.70;;;14.10;99.90;;;;;;4985261;28;20715;-91
2022/11/15 12:56:19;;;;;;;9.33;8.00;;;14.30;99.90;;;;;;4990785;28;20633;-89
2022/11/15 12:58:52;;;;;;;8.40;6.27;;;14.00;99.90;;;;;;4992035;28;20628;-90
2022/11/15 13:02:03;;;;;;;9.93;6.37;;;14.20;99.90;;;;;;4986046;28;20620;-89
2022/11/15 13:04:32;;;;;;;7.73;6.67;;;14.20;99.90;;;;;;5006361;28;20605;-89
2022/11/15 13:07:03;;;;;;;11.07;6.30;;;14.20;1.00;;;;;;5002067;28;20650;-90
2022/11/15 13:09:55;;;;;;;7.40;5.83;;;14.20;1.00;;;;;;5004882;28;20921;-89
2022/11/15 13:12:53;;;;;;;10.23;6.87;;;14.20;1.00;;;;;;5002386;28;20621;-89
2022/11/15 13:15:54;;;;;;;11.00;6.87;;;14.00;1.00;;;;;;4982358;28;20715;-89
2022/11/15 13:18:31;;;;;;;9.13;6.87;;;14.00;1.00;;;;;;4984156;28;21286;-88
2022/11/15 13:20:58;;;;;;;7.50;6.50;;;14.00;1.00;;;;;;4975689;28;20803;-88
2022/11/15 13:23:26;;;;;;;9.20;6.10;;;14.00;1.00;;;;;;4983235;28;20659;-89
2022/11/15 13:26:11;;;;;;;10.03;7.47;;;14.10;1.00;;;;;;4987422;28;20635;-88